createdAt,value
2018-09-14T00:00:03.890Z,14.38
2018-09-14T00:02:34.596Z,15.23
2018-09-14T00:05:05.501Z,16.85
2018-09-14T00:07:36.456Z,16.55
2018-09-14T00:10:07.221Z,16.80
2018-09-14T00:12:37.957Z,16.85
2018-09-14T00:15:08.712Z,16.93
2018-09-14T00:17:39.397Z,17.52
2018-09-14T00:20:10.137Z,16.95
2018-09-14T00:22:40.855Z,19.05
2018-09-14T00:25:11.513Z,20.43
2018-09-14T00:27:42.228Z,19.70
2018-09-14T00:30:12.928Z,20.20
2018-09-14T00:32:43.745Z,18.75
2018-09-14T00:35:14.473Z,19.27
2018-09-14T00:37:45.176Z,20.20
2018-09-14T00:40:15.860Z,19.75
2018-09-14T00:42:46.588Z,19.35
2018-09-14T00:45:17.433Z,19.02
2018-09-14T00:47:48.136Z,19.35
2018-09-14T00:50:18.849Z,19.20
2018-09-14T00:52:49.580Z,19.15
2018-09-14T00:55:20.309Z,17.20
2018-09-14T00:57:51.166Z,19.07
2018-09-14T01:00:21.877Z,20.12
2018-09-14T01:02:52.616Z,19.85
2018-09-14T01:05:23.295Z,20.00
2018-09-14T01:07:54.026Z,19.05
2018-09-14T01:10:24.724Z,18.45
2018-09-14T01:12:55.421Z,19.42
2018-09-14T01:15:26.093Z,19.90
2018-09-14T01:17:56.826Z,19.25
2018-09-14T01:20:27.521Z,21.60
2018-09-14T01:22:58.207Z,21.10
2018-09-14T01:25:28.884Z,20.23
2018-09-14T01:27:59.581Z,20.45
2018-09-14T01:30:30.288Z,20.75
2018-09-14T01:33:01.013Z,19.67
2018-09-14T01:35:37.091Z,21.23
2018-09-14T01:38:07.806Z,21.68
2018-09-14T01:40:38.500Z,20.70
2018-09-14T01:43:09.181Z,20.72
2018-09-14T01:45:39.905Z,21.50
2018-09-14T01:48:10.610Z,20.25
2018-09-14T01:50:41.327Z,20.50
2018-09-14T01:53:12.205Z,23.52
2018-09-14T01:55:42.992Z,23.05
2018-09-14T01:58:13.672Z,24.43
2018-09-14T02:00:44.372Z,25.62
2018-09-14T02:03:15.385Z,24.30
2018-09-14T02:05:46.292Z,24.12
2018-09-14T02:08:16.999Z,26.57
2018-09-14T02:10:47.715Z,25.00
2018-09-14T02:13:18.432Z,24.18
2018-09-14T02:15:49.320Z,23.40
2018-09-14T02:18:20.053Z,24.52
2018-09-14T02:20:50.723Z,25.08
2018-09-14T02:23:21.596Z,23.70
2018-09-14T02:25:52.300Z,23.55
2018-09-14T02:28:23.040Z,24.82
2018-09-14T02:30:53.749Z,23.90
2018-09-14T02:33:24.453Z,25.10
2018-09-14T02:35:55.121Z,23.80
2018-09-14T02:38:25.875Z,24.47
2018-09-14T02:40:56.554Z,23.98
2018-09-14T02:43:27.250Z,22.70
2018-09-14T02:45:57.947Z,22.77
2018-09-14T02:48:28.966Z,22.20
2018-09-14T02:50:59.655Z,21.85
2018-09-14T02:53:30.719Z,22.75
2018-09-14T02:56:01.637Z,22.17
2018-09-14T02:58:32.331Z,23.45
2018-09-14T03:01:03.046Z,21.80
2018-09-14T03:03:33.786Z,21.57
2018-09-14T03:06:04.467Z,20.82
2018-09-14T03:08:35.196Z,21.20
2018-09-14T03:11:06.457Z,23.07
2018-09-14T03:13:37.113Z,20.85
2018-09-14T03:16:07.820Z,21.25
2018-09-14T03:18:38.533Z,21.70
2018-09-14T03:21:09.269Z,19.52
2018-09-14T03:23:39.929Z,20.02
2018-09-14T03:26:10.620Z,20.37
2018-09-14T03:28:41.433Z,20.62
2018-09-14T03:31:12.144Z,20.08
2018-09-14T03:33:42.810Z,20.23
2018-09-14T03:36:13.513Z,21.33
2018-09-14T03:38:44.202Z,19.75
2018-09-14T03:41:14.909Z,20.05
2018-09-14T03:43:45.646Z,19.90
2018-09-14T03:46:16.328Z,20.32
2018-09-14T03:48:50.034Z,20.35
2018-09-14T03:51:20.762Z,19.57
2018-09-14T03:53:51.451Z,19.10
2018-09-14T03:56:22.161Z,19.62
2018-09-14T03:58:52.840Z,20.15
2018-09-14T04:01:23.644Z,18.80
2018-09-14T04:03:54.399Z,18.45
2018-09-14T04:06:25.083Z,18.67
2018-09-14T04:08:55.800Z,17.57
2018-09-14T04:11:26.484Z,18.25
2018-09-14T04:13:57.191Z,18.87
2018-09-14T04:16:27.885Z,18.55
2018-09-14T04:19:03.764Z,17.80
2018-09-14T04:21:35.697Z,17.70
2018-09-14T04:24:06.420Z,19.37
2018-09-14T04:26:37.131Z,19.25
2018-09-14T04:29:08.275Z,19.23
2018-09-14T04:31:43.512Z,19.40
2018-09-14T04:34:18.749Z,18.77
2018-09-14T04:36:50.072Z,18.57
2018-09-14T04:39:20.742Z,19.45
2018-09-14T04:41:51.653Z,20.17
2018-09-14T04:44:22.398Z,18.98
2018-09-14T04:46:53.303Z,19.70
2018-09-14T04:49:23.960Z,19.10
2018-09-14T04:51:54.709Z,19.40
2018-09-14T04:54:25.389Z,18.75
2018-09-14T04:56:56.301Z,18.70
2018-09-14T04:59:26.972Z,19.45
2018-09-14T05:01:59.900Z,18.80
2018-09-14T05:04:30.595Z,19.60
2018-09-14T05:07:01.309Z,18.73
2018-09-14T05:09:32.003Z,19.50
2018-09-14T05:12:02.687Z,18.77
2018-09-14T05:14:33.413Z,18.40
2018-09-14T05:17:04.107Z,17.77
2018-09-14T05:19:34.828Z,18.80
2018-09-14T05:22:05.540Z,18.12
2018-09-14T05:24:36.340Z,18.12
2018-09-14T05:27:07.190Z,19.32
2018-09-14T05:29:38.123Z,17.87
2018-09-14T05:32:08.805Z,18.10
2018-09-14T05:34:39.517Z,19.85
2018-09-14T05:37:10.223Z,18.67
2018-09-14T05:39:40.933Z,18.87
2018-09-14T05:42:11.613Z,19.15
2018-09-14T05:44:42.326Z,19.42
2018-09-14T05:47:13.036Z,18.27
2018-09-14T05:49:43.714Z,21.02
2018-09-14T05:52:14.411Z,18.45
2018-09-14T05:54:45.296Z,18.70
2018-09-14T05:57:16.024Z,19.62
2018-09-14T05:59:46.694Z,20.23
2018-09-14T06:02:17.560Z,18.77
2018-09-14T06:04:48.282Z,20.20
2018-09-14T06:07:18.993Z,18.05
2018-09-14T06:09:49.668Z,18.60
2018-09-14T06:12:20.532Z,14.85
2018-09-14T06:14:51.217Z,17.10
2018-09-14T06:17:21.941Z,17.15
2018-09-14T06:19:52.629Z,20.43
2018-09-14T06:22:23.429Z,18.55
2018-09-14T06:24:54.260Z,19.45
2018-09-14T06:27:24.991Z,19.55
2018-09-14T06:29:55.665Z,19.10
2018-09-14T06:32:26.360Z,19.45
2018-09-14T06:34:57.069Z,19.00
2018-09-14T06:37:27.792Z,20.25
2018-09-14T06:39:58.561Z,20.27
2018-09-14T06:42:29.244Z,17.42
2018-09-14T06:45:00.043Z,19.27
2018-09-14T06:47:30.896Z,18.77
2018-09-14T06:50:01.611Z,17.12
2018-09-14T06:52:33.392Z,20.48
2018-09-14T06:55:04.277Z,17.77
2018-09-14T06:57:34.944Z,18.25
2018-09-14T07:00:05.809Z,19.75
2018-09-14T07:02:36.600Z,20.48
2018-09-14T07:05:07.385Z,18.40
2018-09-14T07:07:38.056Z,21.12
2018-09-14T07:10:08.775Z,18.30
2018-09-14T07:12:39.480Z,19.02
2018-09-14T07:15:10.219Z,18.05
2018-09-14T07:17:40.933Z,19.82
2018-09-14T07:20:11.800Z,15.88
2018-09-14T07:22:42.539Z,16.75
2018-09-14T07:25:13.286Z,16.95
2018-09-14T07:27:44.146Z,20.82
2018-09-14T07:30:14.980Z,17.27
2018-09-14T07:32:45.922Z,19.90
2018-09-14T07:35:16.809Z,17.85
2018-09-14T07:37:47.525Z,18.67
2018-09-14T07:40:18.211Z,14.00
2018-09-14T07:42:48.899Z,18.80
2018-09-14T07:45:19.613Z,20.60
2018-09-14T07:47:50.340Z,18.65
2018-09-14T07:50:21.025Z,18.20
2018-09-14T07:52:51.712Z,19.65
2018-09-14T07:55:22.493Z,17.25
2018-09-14T07:57:53.328Z,20.05
2018-09-14T08:00:24.045Z,21.52
2018-09-14T08:02:54.754Z,16.25
2018-09-14T08:05:25.636Z,18.75
2018-09-14T08:07:56.320Z,17.57
2018-09-14T08:10:27.041Z,17.55
2018-09-14T08:13:01.318Z,20.80
2018-09-14T08:15:32.011Z,19.27
2018-09-14T08:18:02.729Z,18.87
2018-09-14T08:20:33.609Z,17.52
2018-09-14T08:23:04.652Z,20.08
2018-09-14T08:25:35.319Z,19.32
2018-09-14T08:28:06.090Z,21.77
2018-09-14T08:30:36.952Z,20.85
2018-09-14T08:33:07.652Z,20.48
2018-09-14T08:38:15.376Z,22.77
2018-09-14T08:40:46.069Z,23.57
2018-09-14T08:43:16.785Z,22.02
2018-09-14T08:45:47.468Z,22.93
2018-09-14T08:48:18.184Z,23.67
2018-09-14T08:50:49.092Z,21.35
2018-09-14T08:53:19.760Z,21.77
2018-09-14T08:55:50.468Z,21.87
2018-09-14T08:58:21.153Z,22.48
2018-09-14T09:00:51.900Z,20.48
2018-09-14T09:03:22.768Z,19.62
2018-09-14T09:05:53.477Z,20.35
2018-09-14T09:08:24.140Z,21.33
2018-09-14T09:10:54.895Z,21.45
2018-09-14T09:13:25.572Z,21.12
2018-09-14T09:15:56.268Z,21.15
2018-09-14T09:18:26.948Z,19.70
2018-09-14T09:20:57.656Z,18.95
2018-09-14T09:23:28.365Z,17.55
2018-09-14T09:25:59.274Z,17.10
2018-09-14T09:28:29.957Z,16.25
2018-09-14T09:31:01.010Z,14.80
2018-09-14T09:33:31.732Z,15.25
2018-09-14T09:36:02.461Z,15.03
2018-09-14T09:38:33.532Z,14.87
2018-09-14T09:41:04.226Z,14.78
2018-09-14T09:43:35.084Z,16.25
2018-09-14T09:46:05.912Z,17.32
2018-09-14T09:48:36.608Z,13.50
2018-09-14T09:51:07.298Z,13.93
2018-09-14T09:53:38.215Z,17.62
2018-09-14T09:56:08.909Z,17.27
2018-09-14T09:58:39.660Z,18.32
2018-09-14T10:01:15.816Z,15.25
2018-09-14T10:03:51.968Z,17.67
2018-09-14T10:06:23.892Z,15.40
2018-09-14T10:08:55.476Z,15.00
2018-09-14T10:11:26.849Z,14.00
2018-09-14T10:13:57.568Z,14.25
2018-09-14T10:16:28.468Z,13.38
2018-09-14T10:18:59.193Z,14.47
2018-09-14T10:21:29.964Z,15.40
2018-09-14T10:24:00.856Z,14.03
2018-09-14T10:26:31.831Z,14.07
2018-09-14T10:29:02.635Z,13.72
2018-09-14T10:31:33.455Z,13.90
2018-09-14T10:34:04.195Z,14.33
2018-09-14T10:36:35.087Z,16.30
2018-09-14T10:39:08.992Z,15.55
2018-09-14T10:41:39.721Z,15.38
2018-09-14T10:44:10.436Z,15.35
2018-09-14T10:46:41.148Z,13.20
2018-09-14T10:49:11.861Z,16.07
2018-09-14T10:51:42.586Z,14.28
2018-09-14T10:54:13.329Z,13.25
2018-09-14T10:56:44.040Z,13.10
2018-09-14T10:59:14.777Z,14.93
2018-09-14T11:01:45.464Z,14.13
2018-09-14T11:04:16.216Z,14.35
2018-09-14T11:06:47.197Z,11.73
2018-09-14T11:09:18.001Z,11.68
2018-09-14T11:11:48.714Z,12.60
2018-09-14T11:14:19.425Z,16.37
2018-09-14T11:16:50.133Z,15.15
2018-09-14T11:19:20.844Z,13.83
2018-09-14T11:21:51.737Z,15.18
2018-09-14T11:24:22.453Z,13.53
2018-09-14T11:26:53.146Z,13.10
2018-09-14T11:29:23.853Z,12.63
2018-09-14T11:31:54.569Z,13.62
2018-09-14T11:34:25.269Z,13.13
2018-09-14T11:36:56.189Z,10.88
2018-09-14T11:39:26.877Z,10.43
2018-09-14T11:41:57.575Z,9.50
2018-09-14T11:44:28.333Z,9.13
2018-09-14T11:46:59.237Z,11.73
2018-09-14T11:49:29.939Z,10.25
2018-09-14T11:52:00.860Z,11.05
2018-09-14T11:54:31.547Z,13.20
2018-09-14T11:57:02.255Z,12.18
2018-09-14T11:59:32.981Z,10.80
2018-09-14T12:02:03.705Z,10.15
2018-09-14T12:04:34.425Z,13.43
2018-09-14T12:07:05.117Z,11.30
2018-09-14T12:09:35.849Z,12.70
2018-09-14T12:12:06.533Z,11.88
2018-09-14T12:14:36.948Z,10.57
2018-09-14T12:17:07.634Z,6.53
2018-09-14T12:19:38.305Z,6.25
2018-09-14T12:22:09.140Z,6.33
2018-09-14T12:24:39.987Z,9.43
2018-09-14T12:27:10.388Z,6.30
2018-09-14T12:29:41.048Z,6.85
2018-09-14T12:32:11.945Z,8.33
2018-09-14T12:34:42.635Z,11.65
2018-09-14T12:37:13.337Z,10.75
2018-09-14T12:39:44.028Z,11.50
2018-09-14T12:42:14.748Z,11.93
2018-09-14T12:44:45.451Z,10.82
2018-09-14T12:47:15.861Z,10.10
2018-09-14T12:49:46.569Z,10.43
2018-09-14T12:52:16.948Z,10.73
2018-09-14T12:54:47.662Z,9.93
2018-09-14T12:57:18.331Z,10.53
2018-09-14T12:59:49.040Z,9.20
2018-09-14T13:02:19.712Z,10.85
2018-09-14T13:04:50.420Z,9.50
2018-09-14T13:07:21.337Z,8.10
2018-09-14T13:09:52.086Z,7.67
2018-09-14T13:12:22.776Z,8.30
2018-09-14T13:14:53.222Z,7.00
2018-09-14T13:17:24.047Z,6.58
2018-09-14T13:19:54.735Z,5.85
2018-09-14T13:22:25.139Z,6.40
2018-09-14T13:24:55.530Z,8.03
2018-09-14T13:27:26.424Z,8.28
2018-09-14T13:29:56.808Z,6.53
2018-09-14T13:32:27.230Z,7.00
2018-09-14T13:34:57.638Z,6.63
2018-09-14T13:37:28.056Z,6.50
2018-09-14T13:39:58.436Z,5.70
2018-09-14T13:42:29.201Z,5.93
2018-09-14T13:44:59.653Z,5.20
2018-09-14T13:47:30.053Z,5.80
2018-09-14T13:50:00.472Z,5.23
2018-09-14T13:52:30.849Z,4.67
2018-09-14T13:55:01.256Z,4.90
2018-09-14T13:57:31.629Z,5.97
2018-09-14T14:00:03.076Z,6.13
2018-09-14T14:02:33.900Z,4.43
2018-09-14T14:05:04.433Z,4.23
2018-09-14T14:07:34.823Z,4.30
2018-09-14T14:10:05.609Z,4.30
2018-09-14T14:12:35.980Z,5.27
2018-09-14T14:15:06.795Z,4.60
2018-09-14T14:17:37.486Z,5.67
2018-09-14T14:20:08.365Z,4.80
2018-09-14T14:22:38.785Z,4.23
2018-09-14T14:25:09.308Z,4.33
2018-09-14T14:27:39.712Z,3.50
2018-09-14T14:30:10.123Z,4.30
2018-09-14T14:32:40.529Z,3.67
2018-09-14T14:35:10.945Z,3.30
2018-09-14T14:37:41.536Z,4.07
2018-09-14T14:40:11.972Z,3.83
2018-09-14T14:42:42.368Z,3.53
2018-09-14T14:45:12.827Z,3.50
2018-09-14T14:47:43.236Z,3.20
2018-09-14T14:50:13.729Z,3.67
2018-09-14T14:52:44.153Z,3.30
2018-09-14T14:55:14.620Z,3.40
2018-09-14T14:57:45.144Z,3.77
2018-09-14T15:00:15.550Z,4.63
2018-09-14T15:02:45.977Z,3.93
2018-09-14T15:05:16.480Z,3.17
2018-09-14T15:07:46.911Z,3.50
2018-09-14T15:10:18.050Z,3.23
2018-09-14T15:12:48.493Z,3.43
2018-09-14T15:15:18.921Z,3.60
2018-09-14T15:17:49.334Z,3.73
2018-09-14T15:20:19.706Z,2.70
2018-09-14T15:22:50.115Z,2.83
2018-09-14T15:25:20.513Z,2.83
2018-09-14T15:27:51.103Z,2.87
2018-09-14T15:30:21.642Z,2.60
2018-09-14T15:32:52.109Z,3.20
2018-09-14T15:35:22.506Z,2.90
2018-09-14T15:37:52.916Z,3.47
2018-09-14T15:40:23.847Z,3.63
2018-09-14T15:42:54.221Z,4.03
2018-09-14T15:45:24.828Z,3.23
2018-09-14T15:47:55.229Z,3.10
2018-09-14T15:50:25.632Z,3.17
2018-09-14T15:52:56.028Z,2.90
2018-09-14T15:55:26.436Z,3.23
2018-09-14T15:57:57.136Z,16.23
2018-09-14T16:00:27.557Z,5.20
2018-09-14T16:02:57.939Z,19.27
2018-09-14T16:05:28.412Z,4.50
2018-09-14T16:07:58.812Z,3.10
2018-09-14T16:10:29.224Z,2.93
2018-09-14T16:12:59.904Z,2.97
2018-09-14T16:15:30.284Z,3.30
2018-09-14T16:18:00.698Z,3.93
2018-09-14T16:20:31.272Z,3.50
2018-09-14T16:23:01.690Z,3.73
2018-09-14T16:25:32.360Z,3.33
2018-09-14T16:28:03.733Z,3.43
2018-09-14T16:30:35.156Z,3.20
2018-09-14T16:33:05.925Z,3.47
2018-09-14T16:35:36.605Z,6.80
2018-09-14T16:38:07.040Z,5.60
2018-09-14T16:40:37.572Z,4.13
2018-09-14T16:43:07.973Z,3.40
2018-09-14T16:45:38.409Z,3.53
2018-09-14T16:48:09.067Z,3.50
2018-09-14T16:50:39.805Z,3.22
2018-09-14T16:53:10.207Z,3.43
2018-09-14T16:55:40.604Z,3.40
2018-09-14T16:58:11.293Z,2.95
2018-09-14T17:00:41.700Z,3.10
2018-09-14T17:03:12.101Z,3.30
2018-09-14T17:05:42.537Z,3.50
2018-09-14T17:08:13.211Z,3.25
2018-09-14T17:10:43.913Z,3.90
2018-09-14T17:13:14.589Z,3.15
2018-09-14T17:15:45.024Z,2.57
2018-09-14T17:18:15.424Z,2.77
2018-09-14T17:20:45.813Z,2.57
2018-09-14T17:23:16.794Z,2.75
2018-09-14T17:25:47.178Z,3.00
2018-09-14T17:28:17.589Z,2.37
2018-09-14T17:30:48.256Z,2.20
2018-09-14T17:33:18.660Z,2.30
2018-09-14T17:35:49.349Z,2.00
2018-09-14T17:38:19.857Z,2.63
2018-09-14T17:40:50.340Z,2.13
2018-09-14T17:43:20.762Z,2.13
2018-09-14T17:45:51.153Z,1.83
2018-09-14T17:48:21.569Z,1.90
2018-09-14T17:50:51.992Z,2.03
2018-09-14T17:53:22.391Z,2.03
2018-09-14T17:55:52.781Z,2.10
2018-09-14T17:58:23.244Z,1.80
2018-09-14T18:00:53.940Z,2.45
2018-09-14T18:03:24.698Z,1.90
2018-09-14T18:05:55.586Z,2.37
2018-09-14T18:08:26.222Z,1.90
2018-09-14T18:10:56.634Z,2.10
2018-09-14T18:13:27.037Z,2.30
2018-09-14T18:15:57.685Z,2.00
2018-09-14T18:18:28.757Z,1.98
2018-09-14T18:20:59.157Z,2.30
2018-09-14T18:23:29.536Z,1.70
2018-09-14T18:26:00.612Z,2.20
2018-09-14T18:28:30.990Z,2.10
2018-09-14T18:31:01.709Z,1.75
2018-09-14T18:33:32.400Z,1.87
2018-09-14T18:36:03.110Z,1.95
2018-09-14T18:38:33.956Z,2.30
2018-09-14T18:41:04.675Z,1.92
2018-09-14T18:43:35.396Z,2.33
2018-09-14T18:46:06.067Z,2.05
2018-09-14T18:48:36.760Z,1.87
2018-09-14T18:51:07.461Z,2.05
2018-09-14T18:53:38.601Z,1.90
2018-09-14T18:56:09.260Z,2.35
2018-09-14T18:58:39.957Z,2.20
2018-09-14T19:01:10.612Z,2.10
2018-09-14T19:03:41.329Z,2.50
2018-09-14T19:06:12.413Z,2.85
2018-09-14T19:08:43.125Z,2.62
2018-09-14T19:11:13.812Z,2.58
2018-09-14T19:13:44.530Z,2.58
2018-09-14T19:16:15.216Z,2.80
2018-09-14T19:18:46.300Z,2.65
2018-09-14T19:21:16.994Z,2.50
2018-09-14T19:23:47.648Z,2.60
2018-09-14T19:26:18.354Z,2.70
2018-09-14T19:28:49.217Z,2.52
2018-09-14T19:31:19.940Z,2.50
2018-09-14T19:33:50.666Z,2.75
2018-09-14T19:36:21.385Z,2.52
2018-09-14T19:38:52.065Z,2.65
2018-09-14T19:41:23.372Z,2.92
2018-09-14T19:43:54.049Z,3.05
2018-09-14T19:46:24.736Z,2.95
2018-09-14T19:48:55.392Z,2.67
2018-09-14T19:51:26.138Z,2.70
2018-09-14T19:53:56.989Z,2.70
2018-09-14T19:56:27.712Z,2.42
2018-09-14T19:58:58.728Z,3.02
2018-09-14T20:01:29.445Z,2.27
2018-09-14T20:04:00.124Z,2.75
2018-09-14T20:06:30.807Z,2.98
2018-09-14T20:09:01.460Z,2.40
2018-09-14T20:11:32.137Z,2.50
2018-09-14T20:14:03.036Z,2.47
2018-09-14T20:16:33.700Z,2.80
2018-09-14T20:19:04.407Z,2.30
2018-09-14T20:21:35.078Z,2.85
2018-09-14T20:24:05.790Z,2.87
2018-09-14T20:26:36.652Z,2.90
2018-09-14T20:29:07.360Z,2.47
2018-09-14T20:31:38.033Z,2.90
2018-09-14T20:34:08.732Z,2.50
2018-09-14T20:36:39.451Z,2.83
2018-09-14T20:39:11.708Z,3.10
2018-09-14T20:41:42.423Z,3.10
2018-09-14T20:44:13.122Z,3.08
2018-09-14T20:46:43.824Z,3.22
2018-09-14T20:49:14.484Z,3.45
2018-09-14T20:51:45.280Z,4.67
2018-09-14T20:54:16.140Z,2.95
2018-09-14T20:56:46.836Z,2.83
2018-09-14T20:59:17.716Z,3.35
2018-09-14T21:01:48.681Z,2.75
2018-09-14T21:04:19.431Z,3.17
2018-09-14T21:06:50.265Z,3.40
2018-09-14T21:09:20.957Z,3.67
2018-09-14T21:11:51.647Z,3.60
2018-09-14T21:14:22.341Z,3.55
2018-09-14T21:16:53.018Z,4.15
2018-09-14T21:19:23.718Z,4.10
2018-09-14T21:21:54.401Z,3.45
2018-09-14T21:24:25.091Z,3.58
2018-09-14T21:26:55.772Z,3.47
2018-09-14T21:29:26.453Z,3.45
2018-09-14T21:31:57.121Z,3.58
2018-09-14T21:34:27.811Z,3.80
2018-09-14T21:36:58.480Z,3.47
2018-09-14T21:39:29.188Z,3.70
2018-09-14T21:41:59.861Z,3.50
2018-09-14T21:44:30.558Z,4.17
2018-09-14T21:47:01.244Z,4.55
2018-09-14T21:49:31.971Z,3.50
2018-09-14T21:52:02.650Z,3.55
2018-09-14T21:54:33.333Z,3.20
2018-09-14T21:57:04.048Z,3.58
2018-09-14T21:59:34.715Z,3.80
2018-09-14T22:02:05.437Z,3.98
2018-09-14T22:04:36.103Z,3.30
2018-09-14T22:07:07.774Z,4.08
2018-09-14T22:09:38.432Z,3.92
2018-09-14T22:12:09.155Z,4.22
2018-09-14T22:14:39.816Z,4.35
2018-09-14T22:17:10.528Z,3.60
2018-09-14T22:19:41.220Z,3.42
2018-09-14T22:22:11.929Z,3.77
2018-09-14T22:24:42.772Z,4.03
2018-09-14T22:27:13.459Z,3.47
2018-09-14T22:29:44.164Z,4.30
2018-09-14T22:32:14.864Z,3.87
2018-09-14T22:34:45.773Z,4.47
2018-09-14T22:37:16.472Z,3.90
2018-09-14T22:39:47.132Z,4.08
2018-09-14T22:42:17.837Z,3.50
2018-09-14T22:44:48.594Z,3.65
2018-09-14T22:47:19.297Z,3.62
2018-09-14T22:49:49.977Z,4.00
2018-09-14T22:52:20.714Z,4.05
2018-09-14T22:54:51.449Z,3.52
2018-09-14T22:57:22.136Z,4.20
2018-09-14T22:59:52.826Z,3.95
2018-09-14T23:02:23.536Z,3.72
2018-09-14T23:04:54.209Z,3.92
2018-09-14T23:07:24.916Z,3.52
2018-09-14T23:09:55.572Z,3.52
2018-09-14T23:12:26.265Z,3.65
2018-09-14T23:14:56.948Z,3.52
2018-09-14T23:17:27.596Z,3.80
2018-09-14T23:19:58.284Z,3.77
2018-09-14T23:22:28.947Z,4.08
2018-09-14T23:24:59.643Z,3.65
2018-09-14T23:48:55.913Z,4.00
2018-09-14T23:51:26.055Z,3.70
2018-09-14T23:54:01.400Z,3.12
2018-09-14T23:56:36.836Z,4.17
2018-09-14T23:59:07.496Z,4.15
